sensor_id;sensor_type;location;lat;lon;timestamp;temperature;humidity
80367;DHT22;70058;42.660;23.366;2023-09-30T00:00:36;18.40;49.20
80367;DHT22;70058;42.660;23.366;2023-09-30T00:03:02;18.50;48.70
80367;DHT22;70058;42.660;23.366;2023-09-30T00:05:28;18.50;48.50
80367;DHT22;70058;42.660;23.366;2023-09-30T00:07:54;18.60;48.30
80367;DHT22;70058;42.660;23.366;2023-09-30T00:10:20;18.70;48.30
80367;DHT22;70058;42.660;23.366;2023-09-30T00:12:45;18.70;48.40
80367;DHT22;70058;42.660;23.366;2023-09-30T00:15:11;18.70;48.40
80367;DHT22;70058;42.660;23.366;2023-09-30T00:17:37;18.70;48.30
80367;DHT22;70058;42.660;23.366;2023-09-30T00:20:03;18.70;47.70
80367;DHT22;70058;42.660;23.366;2023-09-30T00:22:29;18.80;47.80
80367;DHT22;70058;42.660;23.366;2023-09-30T00:24:55;18.90;47.50
80367;DHT22;70058;42.660;23.366;2023-09-30T00:27:21;18.90;47.10
80367;DHT22;70058;42.660;23.366;2023-09-30T00:29:47;18.90;47.10
80367;DHT22;70058;42.660;23.366;2023-09-30T00:32:13;18.80;47.40
80367;DHT22;70058;42.660;23.366;2023-09-30T00:34:38;18.80;47.50
80367;DHT22;70058;42.660;23.366;2023-09-30T00:37:05;18.80;47.90
80367;DHT22;70058;42.660;23.366;2023-09-30T00:39:33;18.80;47.60
80367;DHT22;70058;42.660;23.366;2023-09-30T00:41:58;18.90;47.10
80367;DHT22;70058;42.660;23.366;2023-09-30T00:44:25;18.80;47.10
80367;DHT22;70058;42.660;23.366;2023-09-30T00:46:52;18.90;47.20
80367;DHT22;70058;42.660;23.366;2023-09-30T00:49:18;18.80;47.40
80367;DHT22;70058;42.660;23.366;2023-09-30T00:51:45;18.70;47.30
80367;DHT22;70058;42.660;23.366;2023-09-30T00:54:11;18.70;47.70
80367;DHT22;70058;42.660;23.366;2023-09-30T00:56:45;18.80;47.50
80367;DHT22;70058;42.660;23.366;2023-09-30T00:59:14;18.80;47.20
80367;DHT22;70058;42.660;23.366;2023-09-30T01:01:44;18.70;47.10
80367;DHT22;70058;42.660;23.366;2023-09-30T01:04:14;18.70;47.10
80367;DHT22;70058;42.660;23.366;2023-09-30T01:06:40;18.70;47.20
80367;DHT22;70058;42.660;23.366;2023-09-30T01:09:07;18.70;47.70
80367;DHT22;70058;42.660;23.366;2023-09-30T01:11:32;18.60;48.10
80367;DHT22;70058;42.660;23.366;2023-09-30T01:13:58;18.60;48.10
80367;DHT22;70058;42.660;23.366;2023-09-30T01:16:24;18.60;47.60
80367;DHT22;70058;42.660;23.366;2023-09-30T01:18:50;18.60;48.00
80367;DHT22;70058;42.660;23.366;2023-09-30T01:21:16;18.60;48.40
80367;DHT22;70058;42.660;23.366;2023-09-30T01:23:43;18.70;48.40
80367;DHT22;70058;42.660;23.366;2023-09-30T01:26:13;18.70;48.10
80367;DHT22;70058;42.660;23.366;2023-09-30T01:28:40;18.70;48.80
80367;DHT22;70058;42.660;23.366;2023-09-30T01:31:06;18.70;49.10
80367;DHT22;70058;42.660;23.366;2023-09-30T01:33:32;18.70;48.90
80367;DHT22;70058;42.660;23.366;2023-09-30T01:35:59;18.70;48.50
80367;DHT22;70058;42.660;23.366;2023-09-30T01:38:25;18.70;48.80
80367;DHT22;70058;42.660;23.366;2023-09-30T01:40:51;18.70;48.40
80367;DHT22;70058;42.660;23.366;2023-09-30T01:43:17;18.70;48.10
80367;DHT22;70058;42.660;23.366;2023-09-30T01:45:43;18.60;47.50
80367;DHT22;70058;42.660;23.366;2023-09-30T01:48:10;18.60;47.30
80367;DHT22;70058;42.660;23.366;2023-09-30T01:50:39;18.60;47.90
80367;DHT22;70058;42.660;23.366;2023-09-30T01:53:06;18.70;47.90
80367;DHT22;70058;42.660;23.366;2023-09-30T01:55:33;18.60;48.10
80367;DHT22;70058;42.660;23.366;2023-09-30T01:57:59;18.50;48.20
80367;DHT22;70058;42.660;23.366;2023-09-30T02:00:25;18.50;48.30
80367;DHT22;70058;42.660;23.366;2023-09-30T02:02:50;18.50;48.60
80367;DHT22;70058;42.660;23.366;2023-09-30T02:05:16;18.40;48.50
80367;DHT22;70058;42.660;23.366;2023-09-30T02:07:42;18.40;48.50
80367;DHT22;70058;42.660;23.366;2023-09-30T02:10:08;18.30;48.60
80367;DHT22;70058;42.660;23.366;2023-09-30T02:12:35;18.20;49.00
80367;DHT22;70058;42.660;23.366;2023-09-30T02:15:03;18.00;49.70
80367;DHT22;70058;42.660;23.366;2023-09-30T02:17:29;17.90;50.10
80367;DHT22;70058;42.660;23.366;2023-09-30T02:19:55;17.90;50.60
80367;DHT22;70058;42.660;23.366;2023-09-30T03:59:14;14.30;61.80
80367;DHT22;70058;42.660;23.366;2023-09-30T04:01:41;15.90;58.00
80367;DHT22;70058;42.660;23.366;2023-09-30T04:04:08;16.00;56.30
80367;DHT22;70058;42.660;23.366;2023-09-30T04:06:36;16.10;55.90
80367;DHT22;70058;42.660;23.366;2023-09-30T04:09:04;16.20;55.00
80367;DHT22;70058;42.660;23.366;2023-09-30T04:11:38;16.20;54.70
80367;DHT22;70058;42.660;23.366;2023-09-30T04:14:07;16.20;54.30
80367;DHT22;70058;42.660;23.366;2023-09-30T04:16:33;16.10;54.50
80367;DHT22;70058;42.660;23.366;2023-09-30T04:18:59;16.00;54.40
80367;DHT22;70058;42.660;23.366;2023-09-30T04:21:26;16.20;53.00
80367;DHT22;70058;42.660;23.366;2023-09-30T04:23:54;16.20;52.00
80367;DHT22;70058;42.660;23.366;2023-09-30T04:26:19;16.20;52.00
80367;DHT22;70058;42.660;23.366;2023-09-30T04:28:45;16.20;51.80
80367;DHT22;70058;42.660;23.366;2023-09-30T04:31:11;16.20;51.70
80367;DHT22;70058;42.660;23.366;2023-09-30T04:33:39;16.20;51.60
80367;DHT22;70058;42.660;23.366;2023-09-30T04:36:06;16.00;52.10
80367;DHT22;70058;42.660;23.366;2023-09-30T04:38:34;16.00;52.10
80367;DHT22;70058;42.660;23.366;2023-09-30T04:41:03;16.10;53.00
80367;DHT22;70058;42.660;23.366;2023-09-30T04:43:29;16.00;52.60
80367;DHT22;70058;42.660;23.366;2023-09-30T04:45:55;15.90;52.90
80367;DHT22;70058;42.660;23.366;2023-09-30T04:48:23;15.90;53.30
80367;DHT22;70058;42.660;23.366;2023-09-30T04:50:48;16.00;53.20
80367;DHT22;70058;42.660;23.366;2023-09-30T04:53:14;16.00;52.80
80367;DHT22;70058;42.660;23.366;2023-09-30T04:55:43;16.10;52.50
80367;DHT22;70058;42.660;23.366;2023-09-30T04:58:11;16.10;52.20
80367;DHT22;70058;42.660;23.366;2023-09-30T05:00:38;16.20;51.70
80367;DHT22;70058;42.660;23.366;2023-09-30T05:03:04;16.20;51.40
80367;DHT22;70058;42.660;23.366;2023-09-30T05:05:30;16.30;51.30
80367;DHT22;70058;42.660;23.366;2023-09-30T05:07:56;16.30;50.90
80367;DHT22;70058;42.660;23.366;2023-09-30T05:10:23;16.40;50.90
80367;DHT22;70058;42.660;23.366;2023-09-30T05:12:49;16.50;50.60
80367;DHT22;70058;42.660;23.366;2023-09-30T05:15:17;16.50;50.40
80367;DHT22;70058;42.660;23.366;2023-09-30T05:17:45;16.50;50.70
80367;DHT22;70058;42.660;23.366;2023-09-30T05:20:11;16.60;50.80
80367;DHT22;70058;42.660;23.366;2023-09-30T05:22:38;16.60;50.50
80367;DHT22;70058;42.660;23.366;2023-09-30T05:25:06;16.70;50.70
80367;DHT22;70058;42.660;23.366;2023-09-30T05:27:33;16.80;50.80
80367;DHT22;70058;42.660;23.366;2023-09-30T05:29:58;16.90;50.70
80367;DHT22;70058;42.660;23.366;2023-09-30T05:32:25;17.00;50.40
80367;DHT22;70058;42.660;23.366;2023-09-30T05:34:52;16.90;50.30
80367;DHT22;70058;42.660;23.366;2023-09-30T05:37:19;17.00;50.30
80367;DHT22;70058;42.660;23.366;2023-09-30T05:39:47;17.10;50.50
80367;DHT22;70058;42.660;23.366;2023-09-30T05:42:17;17.20;51.20
80367;DHT22;70058;42.660;23.366;2023-09-30T05:44:44;17.30;49.60
80367;DHT22;70058;42.660;23.366;2023-09-30T05:47:11;17.30;49.20
80367;DHT22;70058;42.660;23.366;2023-09-30T05:49:37;17.50;48.50
80367;DHT22;70058;42.660;23.366;2023-09-30T05:52:03;17.70;47.70
80367;DHT22;70058;42.660;23.366;2023-09-30T05:54:29;17.80;47.00
80367;DHT22;70058;42.660;23.366;2023-09-30T05:56:55;17.90;46.60
80367;DHT22;70058;42.660;23.366;2023-09-30T05:59:21;17.90;46.70
80367;DHT22;70058;42.660;23.366;2023-09-30T06:01:48;17.90;47.00
80367;DHT22;70058;42.660;23.366;2023-09-30T06:04:13;17.90;47.80
80367;DHT22;70058;42.660;23.366;2023-09-30T06:06:39;17.90;48.60
80367;DHT22;70058;42.660;23.366;2023-09-30T06:09:05;18.00;47.70
80367;DHT22;70058;42.660;23.366;2023-09-30T06:11:33;18.20;46.50
80367;DHT22;70058;42.660;23.366;2023-09-30T06:13:59;18.30;46.40
80367;DHT22;70058;42.660;23.366;2023-09-30T06:16:27;18.40;46.40
80367;DHT22;70058;42.660;23.366;2023-09-30T06:18:53;18.40;46.60
80367;DHT22;70058;42.660;23.366;2023-09-30T06:21:24;18.50;45.80
80367;DHT22;70058;42.660;23.366;2023-09-30T06:23:50;18.70;46.40
80367;DHT22;70058;42.660;23.366;2023-09-30T06:26:17;18.80;46.10
80367;DHT22;70058;42.660;23.366;2023-09-30T06:28:43;19.00;45.30
80367;DHT22;70058;42.660;23.366;2023-09-30T06:31:10;19.00;45.40
80367;DHT22;70058;42.660;23.366;2023-09-30T06:33:36;19.10;45.70
80367;DHT22;70058;42.660;23.366;2023-09-30T06:36:08;19.20;45.10
80367;DHT22;70058;42.660;23.366;2023-09-30T06:38:34;19.30;44.10
80367;DHT22;70058;42.660;23.366;2023-09-30T06:41:00;19.40;44.50
80367;DHT22;70058;42.660;23.366;2023-09-30T06:43:27;19.60;44.80
80367;DHT22;70058;42.660;23.366;2023-09-30T06:45:53;19.70;43.90
80367;DHT22;70058;42.660;23.366;2023-09-30T06:48:20;19.90;43.50
80367;DHT22;70058;42.660;23.366;2023-09-30T06:50:49;20.10;43.60
80367;DHT22;70058;42.660;23.366;2023-09-30T06:53:16;20.40;42.70
80367;DHT22;70058;42.660;23.366;2023-09-30T06:55:42;21.40;40.20
80367;DHT22;70058;42.660;23.366;2023-09-30T06:58:09;23.70;35.70
80367;DHT22;70058;42.660;23.366;2023-09-30T07:00:36;26.40;31.60
80367;DHT22;70058;42.660;23.366;2023-09-30T07:03:02;28.70;29.10
80367;DHT22;70058;42.660;23.366;2023-09-30T07:05:29;30.50;27.10
80367;DHT22;70058;42.660;23.366;2023-09-30T07:07:55;31.90;25.20
80367;DHT22;70058;42.660;23.366;2023-09-30T07:10:21;32.90;24.20
80367;DHT22;70058;42.660;23.366;2023-09-30T07:12:46;33.70;23.40
80367;DHT22;70058;42.660;23.366;2023-09-30T07:15:12;34.30;23.10
80367;DHT22;70058;42.660;23.366;2023-09-30T07:17:40;35.20;22.20
80367;DHT22;70058;42.660;23.366;2023-09-30T07:20:06;36.10;21.40
80367;DHT22;70058;42.660;23.366;2023-09-30T07:22:35;37.00;21.00
80367;DHT22;70058;42.660;23.366;2023-09-30T07:25:01;37.80;20.40
80367;DHT22;70058;42.660;23.366;2023-09-30T07:27:27;38.50;20.00
80367;DHT22;70058;42.660;23.366;2023-09-30T07:29:53;38.90;19.20
80367;DHT22;70058;42.660;23.366;2023-09-30T07:32:19;39.20;18.90
80367;DHT22;70058;42.660;23.366;2023-09-30T07:34:48;39.60;18.80
80367;DHT22;70058;42.660;23.366;2023-09-30T07:37:13;40.20;18.70
80367;DHT22;70058;42.660;23.366;2023-09-30T07:39:39;40.30;18.40
80367;DHT22;70058;42.660;23.366;2023-09-30T07:42:05;40.80;18.10
80367;DHT22;70058;42.660;23.366;2023-09-30T07:44:33;41.10;17.90
80367;DHT22;70058;42.660;23.366;2023-09-30T07:47:01;41.70;17.70
80367;DHT22;70058;42.660;23.366;2023-09-30T07:49:29;42.10;17.10
80367;DHT22;70058;42.660;23.366;2023-09-30T07:51:55;42.50;17.10
80367;DHT22;70058;42.660;23.366;2023-09-30T07:54:21;42.70;16.70
80367;DHT22;70058;42.660;23.366;2023-09-30T07:56:46;42.70;16.60
80367;DHT22;70058;42.660;23.366;2023-09-30T07:59:12;43.10;16.20
80367;DHT22;70058;42.660;23.366;2023-09-30T08:01:39;43.20;16.10
80367;DHT22;70058;42.660;23.366;2023-09-30T08:04:05;43.60;16.20
80367;DHT22;70058;42.660;23.366;2023-09-30T08:06:30;43.80;15.90
80367;DHT22;70058;42.660;23.366;2023-09-30T08:08:56;44.10;15.90
80367;DHT22;70058;42.660;23.366;2023-09-30T08:11:22;43.70;15.30
80367;DHT22;70058;42.660;23.366;2023-09-30T08:13:48;44.10;15.90
80367;DHT22;70058;42.660;23.366;2023-09-30T08:16:14;43.80;15.20
80367;DHT22;70058;42.660;23.366;2023-09-30T08:18:39;43.60;14.80
80367;DHT22;70058;42.660;23.366;2023-09-30T08:21:09;42.80;15.20
80367;DHT22;70058;42.660;23.366;2023-09-30T08:23:35;42.70;16.10
80367;DHT22;70058;42.660;23.366;2023-09-30T08:26:01;42.50;15.70
80367;DHT22;70058;42.660;23.366;2023-09-30T08:28:27;43.30;15.60
80367;DHT22;70058;42.660;23.366;2023-09-30T08:30:52;44.00;15.50
80367;DHT22;70058;42.660;23.366;2023-09-30T08:33:24;44.50;15.20
80367;DHT22;70058;42.660;23.366;2023-09-30T08:35:51;44.60;14.40
80367;DHT22;70058;42.660;23.366;2023-09-30T08:38:17;44.90;14.50
80367;DHT22;70058;42.660;23.366;2023-09-30T08:40:44;45.20;14.50
80367;DHT22;70058;42.660;23.366;2023-09-30T08:43:11;45.50;14.10
80367;DHT22;70058;42.660;23.366;2023-09-30T08:45:40;46.20;14.00
80367;DHT22;70058;42.660;23.366;2023-09-30T08:48:12;46.40;14.00
80367;DHT22;70058;42.660;23.366;2023-09-30T08:50:39;46.00;13.40
80367;DHT22;70058;42.660;23.366;2023-09-30T08:53:07;45.40;13.40
80367;DHT22;70058;42.660;23.366;2023-09-30T08:55:35;45.50;13.30
80367;DHT22;70058;42.660;23.366;2023-09-30T08:58:01;45.90;13.60
80367;DHT22;70058;42.660;23.366;2023-09-30T09:00:27;46.30;13.20
80367;DHT22;70058;42.660;23.366;2023-09-30T09:02:53;44.90;13.00
80367;DHT22;70058;42.660;23.366;2023-09-30T09:05:19;42.90;13.60
80367;DHT22;70058;42.660;23.366;2023-09-30T09:07:45;43.30;13.40
80367;DHT22;70058;42.660;23.366;2023-09-30T09:10:13;43.10;13.60
80367;DHT22;70058;42.660;23.366;2023-09-30T09:12:40;43.20;13.30
80367;DHT22;70058;42.660;23.366;2023-09-30T09:15:07;43.30;13.50
80367;DHT22;70058;42.660;23.366;2023-09-30T09:17:42;42.30;13.50
80367;DHT22;70058;42.660;23.366;2023-09-30T09:20:09;41.30;14.00
80367;DHT22;70058;42.660;23.366;2023-09-30T09:22:42;42.10;14.50
80367;DHT22;70058;42.660;23.366;2023-09-30T09:25:09;43.20;13.80
80367;DHT22;70058;42.660;23.366;2023-09-30T09:27:35;44.60;13.60
80367;DHT22;70058;42.660;23.366;2023-09-30T09:30:20;45.40;13.10
80367;DHT22;70058;42.660;23.366;2023-09-30T09:33:03;45.60;13.10
80367;DHT22;70058;42.660;23.366;2023-09-30T09:35:34;46.30;12.60
80367;DHT22;70058;42.660;23.366;2023-09-30T09:40:27;46.80;13.10
80367;DHT22;70058;42.660;23.366;2023-09-30T09:42:55;45.00;12.20
80367;DHT22;70058;42.660;23.366;2023-09-30T09:45:22;43.80;13.10
80367;DHT22;70058;42.660;23.366;2023-09-30T09:47:48;42.30;13.10
80367;DHT22;70058;42.660;23.366;2023-09-30T09:50:14;42.00;13.70
80367;DHT22;70058;42.660;23.366;2023-09-30T09:52:41;39.70;14.50
80367;DHT22;70058;42.660;23.366;2023-09-30T09:55:10;37.80;15.90
80367;DHT22;70058;42.660;23.366;2023-09-30T09:57:36;38.10;15.90
80367;DHT22;70058;42.660;23.366;2023-09-30T10:00:04;39.50;15.90
80367;DHT22;70058;42.660;23.366;2023-09-30T10:02:42;37.60;16.10
80367;DHT22;70058;42.660;23.366;2023-09-30T10:05:08;36.10;16.80
80367;DHT22;70058;42.660;23.366;2023-09-30T10:07:40;34.00;17.90
80367;DHT22;70058;42.660;23.366;2023-09-30T10:10:13;30.70;21.10
80367;DHT22;70058;42.660;23.366;2023-09-30T10:12:39;30.60;21.40
80367;DHT22;70058;42.660;23.366;2023-09-30T10:18:06;29.30;21.50
80367;DHT22;70058;42.660;23.366;2023-09-30T10:20:34;27.50;23.90
80367;DHT22;70058;42.660;23.366;2023-09-30T10:23:21;27.20;24.00
80367;DHT22;70058;42.660;23.366;2023-09-30T10:25:52;27.30;24.00
80367;DHT22;70058;42.660;23.366;2023-09-30T10:28:42;27.70;23.50
80367;DHT22;70058;42.660;23.366;2023-09-30T10:31:22;27.70;22.40
80367;DHT22;70058;42.660;23.366;2023-09-30T10:38:53;27.00;23.00
80367;DHT22;70058;42.660;23.366;2023-09-30T10:46:57;26.40;23.60
80367;DHT22;70058;42.660;23.366;2023-09-30T10:51:58;26.40;23.70
80367;DHT22;70058;42.660;23.366;2023-09-30T10:54:32;26.50;23.60
80367;DHT22;70058;42.660;23.366;2023-09-30T10:56:59;26.60;23.30
80367;DHT22;70058;42.660;23.366;2023-09-30T10:59:28;26.40;23.50
80367;DHT22;70058;42.660;23.366;2023-09-30T11:01:56;25.90;23.50
80367;DHT22;70058;42.660;23.366;2023-09-30T11:04:22;25.70;23.80
80367;DHT22;70058;42.660;23.366;2023-09-30T11:06:48;25.60;24.30
80367;DHT22;70058;42.660;23.366;2023-09-30T11:09:20;25.20;24.60
80367;DHT22;70058;42.660;23.366;2023-09-30T11:11:52;25.20;24.80
80367;DHT22;70058;42.660;23.366;2023-09-30T11:14:26;25.20;25.30
80367;DHT22;70058;42.660;23.366;2023-09-30T11:16:54;25.50;24.30
80367;DHT22;70058;42.660;23.366;2023-09-30T11:19:20;25.60;24.30
80367;DHT22;70058;42.660;23.366;2023-09-30T11:21:54;25.80;23.70
80367;DHT22;70058;42.660;23.366;2023-09-30T11:24:21;25.60;24.30
80367;DHT22;70058;42.660;23.366;2023-09-30T11:26:47;25.30;24.50
80367;DHT22;70058;42.660;23.366;2023-09-30T11:29:16;25.20;25.70
80367;DHT22;70058;42.660;23.366;2023-09-30T11:31:46;25.40;25.00
80367;DHT22;70058;42.660;23.366;2023-09-30T11:34:15;25.60;24.90
80367;DHT22;70058;42.660;23.366;2023-09-30T11:36:48;25.60;24.70
80367;DHT22;70058;42.660;23.366;2023-09-30T11:39:41;25.90;24.30
80367;DHT22;70058;42.660;23.366;2023-09-30T11:42:15;25.80;24.20
80367;DHT22;70058;42.660;23.366;2023-09-30T11:44:46;24.90;25.30
80367;DHT22;70058;42.660;23.366;2023-09-30T11:47:13;24.60;26.20
80367;DHT22;70058;42.660;23.366;2023-09-30T11:49:41;24.60;26.10
80367;DHT22;70058;42.660;23.366;2023-09-30T11:52:13;24.70;26.70
80367;DHT22;70058;42.660;23.366;2023-09-30T11:54:44;24.90;26.20
80367;DHT22;70058;42.660;23.366;2023-09-30T11:57:15;24.60;26.00
80367;DHT22;70058;42.660;23.366;2023-09-30T11:59:41;24.80;25.50
80367;DHT22;70058;42.660;23.366;2023-09-30T12:02:11;24.80;25.60
80367;DHT22;70058;42.660;23.366;2023-09-30T12:04:38;25.00;25.70
80367;DHT22;70058;42.660;23.366;2023-09-30T12:07:04;25.30;25.30
80367;DHT22;70058;42.660;23.366;2023-09-30T12:09:32;25.20;25.70
80367;DHT22;70058;42.660;23.366;2023-09-30T12:12:00;25.30;25.50
80367;DHT22;70058;42.660;23.366;2023-09-30T12:14:26;25.40;25.20
80367;DHT22;70058;42.660;23.366;2023-09-30T12:16:55;24.70;24.80
80367;DHT22;70058;42.660;23.366;2023-09-30T12:19:20;24.10;26.30
80367;DHT22;70058;42.660;23.366;2023-09-30T12:21:47;24.20;26.60
80367;DHT22;70058;42.660;23.366;2023-09-30T12:24:17;24.30;26.00
80367;DHT22;70058;42.660;23.366;2023-09-30T12:26:45;24.00;26.40
80367;DHT22;70058;42.660;23.366;2023-09-30T12:29:33;24.20;26.50
80367;DHT22;70058;42.660;23.366;2023-09-30T12:31:59;24.40;26.30
80367;DHT22;70058;42.660;23.366;2023-09-30T12:34:26;24.30;26.40
80367;DHT22;70058;42.660;23.366;2023-09-30T12:36:53;24.30;25.90
80367;DHT22;70058;42.660;23.366;2023-09-30T12:39:19;24.20;26.60
80367;DHT22;70058;42.660;23.366;2023-09-30T12:41:49;24.40;26.20
80367;DHT22;70058;42.660;23.366;2023-09-30T12:44:14;24.80;26.10
80367;DHT22;70058;42.660;23.366;2023-09-30T12:46:40;24.80;25.60
80367;DHT22;70058;42.660;23.366;2023-09-30T12:49:07;24.80;25.60
80367;DHT22;70058;42.660;23.366;2023-09-30T12:51:33;25.00;25.70
80367;DHT22;70058;42.660;23.366;2023-09-30T12:53:59;24.90;25.60
80367;DHT22;70058;42.660;23.366;2023-09-30T12:56:25;25.00;25.30
80367;DHT22;70058;42.660;23.366;2023-09-30T12:58:51;25.20;25.30
80367;DHT22;70058;42.660;23.366;2023-09-30T13:01:17;25.50;24.70
80367;DHT22;70058;42.660;23.366;2023-09-30T13:03:46;25.50;24.60
80367;DHT22;70058;42.660;23.366;2023-09-30T13:06:12;25.50;24.90
80367;DHT22;70058;42.660;23.366;2023-09-30T13:08:38;25.50;25.20
80367;DHT22;70058;42.660;23.366;2023-09-30T13:11:04;25.60;24.60
80367;DHT22;70058;42.660;23.366;2023-09-30T13:13:30;25.60;24.70
80367;DHT22;70058;42.660;23.366;2023-09-30T13:15:59;25.80;24.80
80367;DHT22;70058;42.660;23.366;2023-09-30T13:18:25;24.90;25.50
80367;DHT22;70058;42.660;23.366;2023-09-30T13:20:50;24.70;26.50
80367;DHT22;70058;42.660;23.366;2023-09-30T13:23:18;24.50;26.40
80367;DHT22;70058;42.660;23.366;2023-09-30T13:25:44;24.40;26.50
80367;DHT22;70058;42.660;23.366;2023-09-30T13:28:10;24.40;26.60
80367;DHT22;70058;42.660;23.366;2023-09-30T13:30:37;24.40;26.40
80367;DHT22;70058;42.660;23.366;2023-09-30T13:33:03;24.50;26.50
80367;DHT22;70058;42.660;23.366;2023-09-30T13:35:29;24.60;26.20
80367;DHT22;70058;42.660;23.366;2023-09-30T13:37:54;24.80;26.10
80367;DHT22;70058;42.660;23.366;2023-09-30T13:40:20;24.60;26.30
80367;DHT22;70058;42.660;23.366;2023-09-30T13:42:46;24.70;26.40
80367;DHT22;70058;42.660;23.366;2023-09-30T13:45:12;24.80;26.00
80367;DHT22;70058;42.660;23.366;2023-09-30T13:47:38;25.00;25.50
80367;DHT22;70058;42.660;23.366;2023-09-30T13:50:04;25.00;25.20
80367;DHT22;70058;42.660;23.366;2023-09-30T13:52:35;24.80;25.60
80367;DHT22;70058;42.660;23.366;2023-09-30T13:55:00;24.80;25.90
80367;DHT22;70058;42.660;23.366;2023-09-30T13:57:27;24.60;25.90
80367;DHT22;70058;42.660;23.366;2023-09-30T13:59:53;24.40;26.00
80367;DHT22;70058;42.660;23.366;2023-09-30T14:02:19;24.30;26.40
80367;DHT22;70058;42.660;23.366;2023-09-30T14:04:45;24.00;26.90
80367;DHT22;70058;42.660;23.366;2023-09-30T14:07:11;24.00;27.20
80367;DHT22;70058;42.660;23.366;2023-09-30T14:09:37;24.00;27.20
80367;DHT22;70058;42.660;23.366;2023-09-30T14:12:03;24.00;27.20
80367;DHT22;70058;42.660;23.366;2023-09-30T14:14:33;24.10;27.00
80367;DHT22;70058;42.660;23.366;2023-09-30T14:16:59;24.10;27.10
80367;DHT22;70058;42.660;23.366;2023-09-30T14:19:25;23.90;27.20
80367;DHT22;70058;42.660;23.366;2023-09-30T14:21:51;23.90;27.40
80367;DHT22;70058;42.660;23.366;2023-09-30T14:24:17;24.00;27.10
80367;DHT22;70058;42.660;23.366;2023-09-30T14:26:42;24.10;27.20
80367;DHT22;70058;42.660;23.366;2023-09-30T14:29:10;24.20;26.70
80367;DHT22;70058;42.660;23.366;2023-09-30T14:31:38;24.30;26.70
80367;DHT22;70058;42.660;23.366;2023-09-30T14:34:03;24.10;26.90
80367;DHT22;70058;42.660;23.366;2023-09-30T14:36:30;23.70;27.40
80367;DHT22;70058;42.660;23.366;2023-09-30T14:38:58;23.50;27.80
80367;DHT22;70058;42.660;23.366;2023-09-30T14:41:24;23.60;28.00
80367;DHT22;70058;42.660;23.366;2023-09-30T14:43:50;23.70;27.80
80367;DHT22;70058;42.660;23.366;2023-09-30T14:46:15;23.70;27.40
80367;DHT22;70058;42.660;23.366;2023-09-30T14:48:41;23.80;27.40
80367;DHT22;70058;42.660;23.366;2023-09-30T14:51:07;23.70;27.00
80367;DHT22;70058;42.660;23.366;2023-09-30T14:53:33;23.80;27.10
80367;DHT22;70058;42.660;23.366;2023-09-30T14:55:59;23.80;26.80
80367;DHT22;70058;42.660;23.366;2023-09-30T14:58:24;23.90;27.00
80367;DHT22;70058;42.660;23.366;2023-09-30T15:00:50;23.80;27.40
80367;DHT22;70058;42.660;23.366;2023-09-30T15:03:16;23.80;27.90
80367;DHT22;70058;42.660;23.366;2023-09-30T15:05:42;23.70;27.30
80367;DHT22;70058;42.660;23.366;2023-09-30T15:08:07;23.70;27.70
80367;DHT22;70058;42.660;23.366;2023-09-30T15:10:36;23.80;27.70
80367;DHT22;70058;42.660;23.366;2023-09-30T15:13:02;23.70;28.30
80367;DHT22;70058;42.660;23.366;2023-09-30T15:15:29;23.50;27.80
80367;DHT22;70058;42.660;23.366;2023-09-30T15:17:55;23.70;27.60
80367;DHT22;70058;42.660;23.366;2023-09-30T15:20:21;23.60;27.50
80367;DHT22;70058;42.660;23.366;2023-09-30T15:22:46;23.50;27.80
80367;DHT22;70058;42.660;23.366;2023-09-30T15:25:12;23.50;28.10
80367;DHT22;70058;42.660;23.366;2023-09-30T15:27:38;23.50;28.30
80367;DHT22;70058;42.660;23.366;2023-09-30T15:30:04;23.40;28.10
80367;DHT22;70058;42.660;23.366;2023-09-30T15:32:31;23.00;28.60
80367;DHT22;70058;42.660;23.366;2023-09-30T15:34:57;22.80;28.70
80367;DHT22;70058;42.660;23.366;2023-09-30T15:37:23;23.00;28.80
80367;DHT22;70058;42.660;23.366;2023-09-30T15:39:48;22.90;28.70
80367;DHT22;70058;42.660;23.366;2023-09-30T15:42:14;23.00;28.70
80367;DHT22;70058;42.660;23.366;2023-09-30T15:44:41;23.00;28.80
80367;DHT22;70058;42.660;23.366;2023-09-30T15:47:08;23.00;28.70
80367;DHT22;70058;42.660;23.366;2023-09-30T15:49:34;22.90;28.80
80367;DHT22;70058;42.660;23.366;2023-09-30T15:52:00;22.70;29.10
80367;DHT22;70058;42.660;23.366;2023-09-30T15:54:26;22.60;28.90
80367;DHT22;70058;42.660;23.366;2023-09-30T15:56:52;22.40;29.40
80367;DHT22;70058;42.660;23.366;2023-09-30T15:59:17;22.30;29.80
80367;DHT22;70058;42.660;23.366;2023-09-30T16:01:44;22.40;29.80
80367;DHT22;70058;42.660;23.366;2023-09-30T16:04:09;22.40;30.00
80367;DHT22;70058;42.660;23.366;2023-09-30T16:06:35;22.20;30.10
80367;DHT22;70058;42.660;23.366;2023-09-30T16:09:01;22.30;30.10
80367;DHT22;70058;42.660;23.366;2023-09-30T16:11:27;22.30;30.10
80367;DHT22;70058;42.660;23.366;2023-09-30T16:13:53;22.30;30.30
80367;DHT22;70058;42.660;23.366;2023-09-30T16:16:19;22.10;30.20
80367;DHT22;70058;42.660;23.366;2023-09-30T16:18:45;22.00;30.40
80367;DHT22;70058;42.660;23.366;2023-09-30T16:21:11;22.00;30.80
80367;DHT22;70058;42.660;23.366;2023-09-30T16:23:37;22.00;31.10
80367;DHT22;70058;42.660;23.366;2023-09-30T16:26:03;21.90;31.10
80367;DHT22;70058;42.660;23.366;2023-09-30T16:28:28;21.80;31.60
80367;DHT22;70058;42.660;23.366;2023-09-30T16:30:54;21.80;31.40
80367;DHT22;70058;42.660;23.366;2023-09-30T16:33:21;21.70;31.50
80367;DHT22;70058;42.660;23.366;2023-09-30T16:35:53;21.50;31.40
80367;DHT22;70058;42.660;23.366;2023-09-30T16:38:20;21.50;32.10
80367;DHT22;70058;42.660;23.366;2023-09-30T16:40:50;21.60;32.40
80367;DHT22;70058;42.660;23.366;2023-09-30T16:43:16;21.50;32.50
80367;DHT22;70058;42.660;23.366;2023-09-30T16:45:42;21.40;32.10
80367;DHT22;70058;42.660;23.366;2023-09-30T16:48:09;21.40;32.30
80367;DHT22;70058;42.660;23.366;2023-09-30T16:50:43;21.40;33.20
80367;DHT22;70058;42.660;23.366;2023-09-30T16:53:10;21.10;32.80
80367;DHT22;70058;42.660;23.366;2023-09-30T16:55:36;21.10;32.90
80367;DHT22;70058;42.660;23.366;2023-09-30T16:58:02;21.10;33.20
80367;DHT22;70058;42.660;23.366;2023-09-30T17:00:27;21.00;33.30
80367;DHT22;70058;42.660;23.366;2023-09-30T17:02:53;21.10;33.10
80367;DHT22;70058;42.660;23.366;2023-09-30T17:05:19;21.10;33.10
80367;DHT22;70058;42.660;23.366;2023-09-30T17:07:45;21.10;33.20
80367;DHT22;70058;42.660;23.366;2023-09-30T17:10:11;21.00;33.20